Terminal Aerodrome Forecast
Issued by NWS

Home | Current Version | Previous Version | Text Only | Print | Product List | Glossary On
Versions: 1 2 3 4 5 6 7 8 9 10 11 12 13 14 15 16 17 18 19 20 21 22 23
268
FTAK31 PAJN 052320
TAFASI
TAF
PASI 052320Z 0600/0624 VRB05KT P6SM SKC
     FM061400 VRB04KT P6SM BKN080
     FM061800 10006KT P6SM VCSH BKN040 OVC060=

USA.gov is the U.S. government's official web portal to all federal, state and local government web resources and services.